Time;durP1;ratioP1;P1;durP2;ratioP2;P2;SDS_P1;SDS_P2;PMS_P1;PMS_P2;Temp;Humidity;BMP_temperature;BMP_pressure;BME280_temperature;BME280_humidity;BME280_pressure;Samples;Min_cycle;Max_cycle;Signal;HPM_P1;HPM_P2
2023/10/02 00:05:40;;;;;;;;;;;;;;;;;;112542;210;40716;-35
2023/10/02 00:08:31;;;;;;;;;;;;;;;;;;112536;210;43288;-35
2023/10/02 00:17:03;;;;;;;;;;;;;;;;;;112511;210;39739;-35
2023/10/02 00:19:43;;;;;;;;;;;;;;;;;;112476;210;43082;-35
2023/10/02 00:22:38;;;;;;;;;;;;;;;;;;112543;210;43159;-35
2023/10/02 00:25:17;;;;;;;;;;;;;;;;;;112594;210;38736;-35
2023/10/02 00:27:51;;;;;;;;;;;;;;;;;;112585;210;39266;-35
2023/10/02 00:30:35;;;;;;;;;;;;;;;;;;112543;209;48832;-35
2023/10/02 00:33:11;;;;;;;;;;;;;;;;;;112592;210;41631;-35
2023/10/02 00:35:52;;;;;;;;;;;;;;;;;;112593;210;39304;-35
2023/10/02 00:38:28;;;;;;;;;;;;;;;;;;112594;209;39519;-35
2023/10/02 00:41:03;;;;;;;;;;;;;;;;;;112618;209;42998;-35
2023/10/02 00:43:45;;;;;;;;;;;;;;;;;;112592;210;43076;-35
2023/10/02 00:46:24;;;;;;;;;;;;;;;;;;112610;210;39997;-35
2023/10/02 00:49:23;;;;;;;;;;;;;;;;;;112546;209;40842;-35
2023/10/02 00:52:00;;;;;;;;;;;;;;;;;;112586;209;42839;-35
2023/10/02 00:54:34;;;;;;;;;;;;;;;;;;112460;210;194961;-35
2023/10/02 00:57:16;;;;;;;;;;;;;;;;;;112608;210;38714;-35
2023/10/02 00:59:59;;;;;;;;;;;;;;;;;;112600;209;39582;-35
2023/10/02 01:02:33;;;;;;;;;;;;;;;;;;112405;210;42970;-35
2023/10/02 01:05:14;;;;;;;;;;;;;;;;;;112605;210;41652;-35
2023/10/02 01:07:54;;;;;;;;;;;;;;;;;;112631;210;38828;-35
2023/10/02 01:10:30;;;;;;;;;;;;;;;;;;112579;209;39744;-35
2023/10/02 01:13:07;;;;;;;;;;;;;;;;;;112635;210;43948;-35
2023/10/02 01:15:39;;;;;;;;;;;;;;;;;;112640;210;41382;-35
2023/10/02 01:18:23;;;;;;;;;;;;;;;;;;112592;210;38692;-35
2023/10/02 01:21:03;;;;;;;;;;;;;;;;;;112576;209;39539;-35
2023/10/02 01:23:39;;;;;;;;;;;;;;;;;;112622;210;42783;-35
2023/10/02 01:26:13;;;;;;;;;;;;;;;;;;112577;210;41585;-35
2023/10/02 01:28:51;;;;;;;;;;;;;;;;;;112611;210;38504;-35
2023/10/02 01:31:35;;;;;;;;;;;;;;;;;;112570;209;39338;-35
2023/10/02 01:34:10;;;;;;;;;;;;;;;;;;112639;210;42809;-35
2023/10/02 01:36:49;;;;;;;;;;;;;;;;;;112613;210;41614;-35
2023/10/02 01:39:24;;;;;;;;;;;;;;;;;;112689;210;38813;-35
2023/10/02 01:41:56;;;;;;;;;;;;;;;;;;112600;209;46570;-35
2023/10/02 01:44:31;;;;;;;;;;;;;;;;;;112630;210;42786;-35
2023/10/02 01:47:06;;;;;;;;;;;;;;;;;;112571;210;41670;-35
2023/10/02 01:49:38;;;;;;;;;;;;;;;;;;112575;209;38889;-35
2023/10/02 01:52:13;;;;;;;;;;;;;;;;;;112599;209;45192;-35
2023/10/02 01:54:51;;;;;;;;;;;;;;;;;;112560;210;42776;-35
2023/10/02 01:57:29;;;;;;;;;;;;;;;;;;112603;210;41657;-35
2023/10/02 02:00:13;;;;;;;;;;;;;;;;;;112592;209;38821;-35
2023/10/02 02:03:14;;;;;;;;;;;;;;;;;;112550;210;45487;-35
2023/10/02 02:05:44;;;;;;;;;;;;;;;;;;112597;209;43092;-35
2023/10/02 02:08:22;;;;;;;;;;;;;;;;;;112607;210;41739;-35
2023/10/02 02:11:14;;;;;;;;;;;;;;;;;;112574;209;38690;-35
2023/10/02 02:13:50;;;;;;;;;;;;;;;;;;112574;210;40844;-35
2023/10/02 02:16:30;;;;;;;;;;;;;;;;;;112584;209;43023;-35
2023/10/02 02:19:06;;;;;;;;;;;;;;;;;;112585;210;41438;-35
2023/10/02 02:21:41;;;;;;;;;;;;;;;;;;112597;209;38744;-35
2023/10/02 02:24:22;;;;;;;;;;;;;;;;;;112581;210;39505;-35
2023/10/02 02:27:04;;;;;;;;;;;;;;;;;;112604;210;44061;-35
2023/10/02 02:29:36;;;;;;;;;;;;;;;;;;112591;210;42992;-35
2023/10/02 02:32:10;;;;;;;;;;;;;;;;;;112574;209;38777;-35
2023/10/02 02:34:45;;;;;;;;;;;;;;;;;;112635;210;40884;-35
2023/10/02 02:37:28;;;;;;;;;;;;;;;;;;112626;209;43198;-36
2023/10/02 02:42:50;;;;;;;;;;;;;;;;;;112528;209;39955;-35
2023/10/02 02:45:28;;;;;;;;;;;;;;;;;;112193;210;533151;-35
2023/10/02 02:48:04;;;;;;;;;;;;;;;;;;112425;210;43021;-35
2023/10/02 02:50:40;;;;;;;;;;;;;;;;;;112639;209;41616;-35
2023/10/02 02:53:21;;;;;;;;;;;;;;;;;;112561;209;38836;-35
2023/10/02 02:56:18;;;;;;;;;;;;;;;;;;112623;209;39355;-35
2023/10/02 02:58:55;;;;;;;;;;;;;;;;;;112661;209;42994;-35
2023/10/02 03:01:29;;;;;;;;;;;;;;;;;;112601;209;41621;-35
2023/10/02 03:04:11;;;;;;;;;;;;;;;;;;112480;210;46190;-35
2023/10/02 03:06:46;;;;;;;;;;;;;;;;;;112676;209;39730;-35
2023/10/02 03:09:25;;;;;;;;;;;;;;;;;;112613;209;43008;-35
2023/10/02 03:11:59;;;;;;;;;;;;;;;;;;112599;209;41947;-35
2023/10/02 03:14:35;;;;;;;;;;;;;;;;;;112610;210;38642;-35
2023/10/02 03:19:55;;;;;;;;;;;;;;;;;;112642;209;42990;-35
2023/10/02 03:22:33;;;;;;;;;;;;;;;;;;112507;209;175620;-35
2023/10/02 03:27:59;;;;;;;;;;;;;;;;;;112624;209;39791;-36
2023/10/02 03:30:38;;;;;;;;;;;;;;;;;;112654;209;42859;-36
2023/10/02 03:33:18;;;;;;;;;;;;;;;;;;112585;209;41658;-35
2023/10/02 03:36:08;;;;;;;;;;;;;;;;;;112647;210;38714;-35
2023/10/02 03:38:42;;;;;;;;;;;;;;;;;;112658;209;39274;-35
2023/10/02 03:41:18;;;;;;;;;;;;;;;;;;112604;210;42804;-35
2023/10/02 03:43:57;;;;;;;;;;;;;;;;;;112550;209;41365;-35
2023/10/02 03:46:37;;;;;;;;;;;;;;;;;;112672;209;39956;-35
2023/10/02 03:49:11;;;;;;;;;;;;;;;;;;112615;210;39773;-35
2023/10/02 03:51:44;;;;;;;;;;;;;;;;;;112597;210;42910;-35
2023/10/02 03:54:18;;;;;;;;;;;;;;;;;;112556;209;41746;-35
2023/10/02 03:56:55;;;;;;;;;;;;;;;;;;112588;210;38897;-35
2023/10/02 03:59:32;;;;;;;;;;;;;;;;;;112577;210;39092;-35
2023/10/02 04:04:55;;;;;;;;;;;;;;;;;;112485;209;41611;-35
2023/10/02 04:07:29;;;;;;;;;;;;;;;;;;112571;210;38779;-35
2023/10/02 04:10:02;;;;;;;;;;;;;;;;;;112593;210;39780;-35
2023/10/02 04:12:50;;;;;;;;;;;;;;;;;;112634;210;42804;-35
2023/10/02 04:15:22;;;;;;;;;;;;;;;;;;112605;209;48667;-35
2023/10/02 04:17:55;;;;;;;;;;;;;;;;;;112618;210;40006;-35
2023/10/02 04:20:28;;;;;;;;;;;;;;;;;;112613;210;39968;-35
2023/10/02 04:23:21;;;;;;;;;;;;;;;;;;112625;210;43180;-35
2023/10/02 04:25:55;;;;;;;;;;;;;;;;;;112569;210;47608;-35
2023/10/02 04:28:27;;;;;;;;;;;;;;;;;;112607;210;40167;-35
2023/10/02 04:31:05;;;;;;;;;;;;;;;;;;112610;210;40935;-35
2023/10/02 04:33:39;;;;;;;;;;;;;;;;;;112627;210;42918;-35
2023/10/02 04:36:16;;;;;;;;;;;;;;;;;;112509;209;175030;-35
2023/10/02 04:38:55;;;;;;;;;;;;;;;;;;112639;210;39954;-35
2023/10/02 04:41:31;;;;;;;;;;;;;;;;;;112622;210;39943;-35
2023/10/02 04:44:05;;;;;;;;;;;;;;;;;;112618;209;42821;-35
2023/10/02 04:46:45;;;;;;;;;;;;;;;;;;112640;210;41596;-35
2023/10/02 04:49:18;;;;;;;;;;;;;;;;;;112690;210;39889;-35
2023/10/02 04:51:53;;;;;;;;;;;;;;;;;;112670;210;40656;-35
2023/10/02 04:54:27;;;;;;;;;;;;;;;;;;112578;209;44333;-35
2023/10/02 04:57:14;;;;;;;;;;;;;;;;;;112628;210;41608;-35
2023/10/02 04:59:54;;;;;;;;;;;;;;;;;;112611;210;38656;-35
2023/10/02 05:02:29;;;;;;;;;;;;;;;;;;112430;210;39799;-35
2023/10/02 05:05:09;;;;;;;;;;;;;;;;;;112513;209;175601;-35
2023/10/02 05:07:52;;;;;;;;;;;;;;;;;;112616;210;43217;-35
2023/10/02 05:10:25;;;;;;;;;;;;;;;;;;112606;210;40045;-35
2023/10/02 05:12:59;;;;;;;;;;;;;;;;;;112593;210;39726;-35
2023/10/02 05:15:38;;;;;;;;;;;;;;;;;;112536;209;42980;-35
2023/10/02 05:20:59;;;;;;;;;;;;;;;;;;112592;210;38692;-34
2023/10/02 05:23:33;;;;;;;;;;;;;;;;;;112623;210;39635;-34
2023/10/02 05:26:05;;;;;;;;;;;;;;;;;;112582;209;43053;-34
2023/10/02 05:28:45;;;;;;;;;;;;;;;;;;112623;210;42935;-34
2023/10/02 05:31:21;;;;;;;;;;;;;;;;;;112636;210;38699;-34
2023/10/02 05:33:59;;;;;;;;;;;;;;;;;;112607;210;39762;-34
2023/10/02 05:36:35;;;;;;;;;;;;;;;;;;112558;209;44001;-34
2023/10/02 05:42:05;;;;;;;;;;;;;;;;;;112641;210;39945;-34
2023/10/02 05:44:39;;;;;;;;;;;;;;;;;;112617;210;39590;-34
2023/10/02 05:47:15;;;;;;;;;;;;;;;;;;112627;209;42802;-34
2023/10/02 05:49:55;;;;;;;;;;;;;;;;;;112621;210;41693;-34
2023/10/02 05:52:35;;;;;;;;;;;;;;;;;;112636;210;41208;-34
2023/10/02 05:55:17;;;;;;;;;;;;;;;;;;112598;210;39612;-34
2023/10/02 05:57:50;;;;;;;;;;;;;;;;;;112447;209;175606;-34
2023/10/02 06:00:23;;;;;;;;;;;;;;;;;;112588;209;41637;-34
2023/10/02 06:03:04;;;;;;;;;;;;;;;;;;112570;209;39493;-34
2023/10/02 06:06:06;;;;;;;;;;;;;;;;;;112446;209;175625;-34
2023/10/02 06:08:40;;;;;;;;;;;;;;;;;;112605;210;49104;-34
2023/10/02 06:11:31;;;;;;;;;;;;;;;;;;112631;210;41597;-34
2023/10/02 06:14:13;;;;;;;;;;;;;;;;;;112620;209;38820;-34
2023/10/02 06:16:48;;;;;;;;;;;;;;;;;;112588;209;39633;-34
2023/10/02 06:19:22;;;;;;;;;;;;;;;;;;112584;209;42965;-34
2023/10/02 06:22:06;;;;;;;;;;;;;;;;;;112591;209;41778;-34
2023/10/02 06:24:42;;;;;;;;;;;;;;;;;;112599;210;39057;-34
2023/10/02 06:27:17;;;;;;;;;;;;;;;;;;112538;209;39595;-34
2023/10/02 06:29:52;;;;;;;;;;;;;;;;;;112462;210;175610;-34
2023/10/02 06:32:30;;;;;;;;;;;;;;;;;;112624;209;41642;-34
2023/10/02 06:35:05;;;;;;;;;;;;;;;;;;112614;209;38673;-34
2023/10/02 06:37:40;;;;;;;;;;;;;;;;;;112578;209;39535;-34
2023/10/02 06:40:20;;;;;;;;;;;;;;;;;;112660;209;43290;-34
2023/10/02 06:43:00;;;;;;;;;;;;;;;;;;112607;210;41605;-34
2023/10/02 06:45:36;;;;;;;;;;;;;;;;;;112612;209;39945;-34
2023/10/02 06:48:20;;;;;;;;;;;;;;;;;;112552;209;39768;-34
2023/10/02 06:50:55;;;;;;;;;;;;;;;;;;112575;210;42959;-34
2023/10/02 06:53:29;;;;;;;;;;;;;;;;;;112489;210;42012;-34
2023/10/02 06:56:11;;;;;;;;;;;;;;;;;;112505;209;38886;-35
2023/10/02 06:58:52;;;;;;;;;;;;;;;;;;112527;209;40177;-35
2023/10/02 07:01:27;;;;;;;;;;;;;;;;;;112459;210;44339;-36
2023/10/02 07:04:09;;;;;;;;;;;;;;;;;;112398;210;41749;-36
2023/10/02 07:06:44;;;;;;;;;;;;;;;;;;112481;210;38817;-36
2023/10/02 07:09:23;;;;;;;;;;;;;;;;;;112459;209;40830;-38
2023/10/02 07:12:08;;;;;;;;;;;;;;;;;;112624;210;44236;-37
2023/10/02 07:14:43;;;;;;;;;;;;;;;;;;112584;210;42995;-36
2023/10/02 07:17:23;;;;;;;;;;;;;;;;;;112592;209;38871;-35
2023/10/02 07:20:00;;;;;;;;;;;;;;;;;;112692;210;45347;-34
2023/10/02 07:22:33;;;;;;;;;;;;;;;;;;112530;210;42818;-35
2023/10/02 07:25:09;;;;;;;;;;;;;;;;;;112571;209;42857;-35
2023/10/02 07:27:42;;;;;;;;;;;;;;;;;;112609;210;39025;-36
2023/10/02 07:30:26;;;;;;;;;;;;;;;;;;112549;209;46558;-36
2023/10/02 07:33:04;;;;;;;;;;;;;;;;;;112456;210;175580;-36
2023/10/02 07:35:52;;;;;;;;;;;;;;;;;;112558;209;42917;-35
2023/10/02 07:38:30;;;;;;;;;;;;;;;;;;112472;210;38529;-36
2023/10/02 07:41:07;;;;;;;;;;;;;;;;;;112460;210;41904;-37
2023/10/02 07:43:42;;;;;;;;;;;;;;;;;;112451;210;43188;-38
2023/10/02 07:46:15;;;;;;;;;;;;;;;;;;112407;210;43180;-36
2023/10/02 07:48:57;;;;;;;;;;;;;;;;;;112437;210;38612;-38
2023/10/02 07:51:36;;;;;;;;;;;;;;;;;;112435;210;39371;-36
2023/10/02 07:54:13;;;;;;;;;;;;;;;;;;112559;210;42801;-36
2023/10/02 07:56:49;;;;;;;;;;;;;;;;;;112597;210;42055;-36
2023/10/02 07:59:23;;;;;;;;;;;;;;;;;;112488;209;38703;-36
2023/10/02 08:02:21;;;;;;;;;;;;;;;;;;112449;210;40587;-36
2023/10/02 08:04:59;;;;;;;;;;;;;;;;;;112449;210;43129;-36
2023/10/02 08:07:35;;;;;;;;;;;;;;;;;;112473;210;41960;-36
2023/10/02 08:10:18;;;;;;;;;;;;;;;;;;112448;210;38848;-36
2023/10/02 08:12:55;;;;;;;;;;;;;;;;;;112380;210;175285;-36
2023/10/02 08:15:32;;;;;;;;;;;;;;;;;;112573;210;43167;-38
2023/10/02 08:18:14;;;;;;;;;;;;;;;;;;112427;210;41626;-38
2023/10/02 08:20:49;;;;;;;;;;;;;;;;;;112429;210;38664;-38
2023/10/02 08:23:24;;;;;;;;;;;;;;;;;;112621;210;39720;-36
2023/10/02 08:26:05;;;;;;;;;;;;;;;;;;112443;210;175564;-34
2023/10/02 08:28:56;;;;;;;;;;;;;;;;;;112563;210;43063;-37
2023/10/02 08:31:37;;;;;;;;;;;;;;;;;;112516;209;44677;-37
2023/10/02 08:34:14;;;;;;;;;;;;;;;;;;112590;210;39708;-38
2023/10/02 08:36:52;;;;;;;;;;;;;;;;;;112549;210;42813;-37
2023/10/02 08:39:28;;;;;;;;;;;;;;;;;;112489;210;42939;-37
2023/10/02 08:42:09;;;;;;;;;;;;;;;;;;112524;210;45437;-39
2023/10/02 08:44:47;;;;;;;;;;;;;;;;;;112524;210;40906;-42
2023/10/02 08:47:25;;;;;;;;;;;;;;;;;;112527;210;44071;-38
2023/10/02 08:50:04;;;;;;;;;;;;;;;;;;112522;210;41700;-36
2023/10/02 08:52:41;;;;;;;;;;;;;;;;;;112505;210;38657;-41
2023/10/02 08:58:17;;;;;;;;;;;;;;;;;;112508;210;175593;-36
2023/10/02 09:04:21;;;;;;;;;;;;;;;;;;112491;210;191957;-41
2023/10/02 09:06:44;;;;;;;;;;;;;;;;;;112613;210;39607;-37
2023/10/02 09:09:26;;;;;;;;;;;;;;;;;;112573;210;42816;-36
2023/10/02 09:12:02;;;;;;;;;;;;;;;;;;112520;209;41740;-35
2023/10/02 09:14:40;;;;;;;;;;;;;;;;;;112572;210;38896;-38
2023/10/02 09:17:33;;;;;;;;;;;;;;;;;;112448;210;39781;-37
2023/10/02 09:20:09;;;;;;;;;;;;;;;;;;112571;210;42907;-37
2023/10/02 09:22:44;;;;;;;;;;;;;;;;;;112612;210;47406;-34
2023/10/02 09:25:26;;;;;;;;;;;;;;;;;;112420;210;38865;-35
2023/10/02 09:28:13;;;;;;;;;;;;;;;;;;112464;210;39658;-37
2023/10/02 09:31:14;;;;;;;;;;;;;;;;;;112418;210;42562;-37
2023/10/02 09:33:47;;;;;;;;;;;;;;;;;;112415;210;41395;-37
2023/10/02 09:36:48;;;;;;;;;;;;;;;;;;112376;210;38864;-38
2023/10/02 09:39:41;;;;;;;;;;;;;;;;;;112367;210;175638;-36
2023/10/02 09:42:14;;;;;;;;;;;;;;;;;;112450;210;42553;-36
2023/10/02 09:44:51;;;;;;;;;;;;;;;;;;112420;210;41610;-35
2023/10/02 09:47:30;;;;;;;;;;;;;;;;;;112414;210;40395;-35
2023/10/02 09:50:23;;;;;;;;;;;;;;;;;;112404;210;39387;-35
2023/10/02 09:52:59;;;;;;;;;;;;;;;;;;112479;210;42816;-35
2023/10/02 09:55:51;;;;;;;;;;;;;;;;;;112471;210;176792;-35
2023/10/02 09:58:32;;;;;;;;;;;;;;;;;;112562;210;38926;-35
2023/10/02 10:01:40;;;;;;;;;;;;;;;;;;112576;209;39548;-35
2023/10/02 10:07:32;;;;;;;;;;;;;;;;;;112546;210;42568;-36
2023/10/02 10:10:45;;;;;;;;;;;;;;;;;;112552;210;38522;-35
2023/10/02 10:13:37;;;;;;;;;;;;;;;;;;112555;209;39542;-34
2023/10/02 10:16:39;;;;;;;;;;;;;;;;;;112490;209;42555;-35
2023/10/02 10:19:30;;;;;;;;;;;;;;;;;;112573;210;41637;-35
2023/10/02 10:22:13;;;;;;;;;;;;;;;;;;112535;209;39082;-38
2023/10/02 10:25:22;;;;;;;;;;;;;;;;;;112554;210;46788;-37
2023/10/02 10:28:00;;;;;;;;;;;;;;;;;;112434;210;42883;-39
2023/10/02 10:30:42;;;;;;;;;;;;;;;;;;112650;210;41381;-38
2023/10/02 10:33:45;;;;;;;;;;;;;;;;;;112580;209;38729;-37
2023/10/02 10:36:38;;;;;;;;;;;;;;;;;;112589;210;39630;-37
2023/10/02 10:39:42;;;;;;;;;;;;;;;;;;112616;210;43843;-38
2023/10/02 10:42:15;;;;;;;;;;;;;;;;;;112644;210;42023;-38
2023/10/02 10:44:52;;;;;;;;;;;;;;;;;;112579;209;38683;-38
2023/10/02 10:51:00;;;;;;;;;;;;;;;;;;112320;208;884357;-36
2023/10/02 10:53:41;;;;;;;;;;;;;;;;;;112641;209;41663;-36
2023/10/02 10:56:18;;;;;;;;;;;;;;;;;;112713;209;39002;-35
2023/10/02 10:59:01;;;;;;;;;;;;;;;;;;112696;209;39557;-35
2023/10/02 11:01:34;;;;;;;;;;;;;;;;;;112749;209;44373;-35
2023/10/02 11:04:13;;;;;;;;;;;;;;;;;;112670;209;41383;-35
2023/10/02 11:06:48;;;;;;;;;;;;;;;;;;112717;209;38851;-35
2023/10/02 11:09:26;;;;;;;;;;;;;;;;;;112699;209;39959;-35
2023/10/02 11:12:02;;;;;;;;;;;;;;;;;;112718;209;42837;-35
2023/10/02 11:14:44;;;;;;;;;;;;;;;;;;112694;209;41710;-35
2023/10/02 11:17:32;;;;;;;;;;;;;;;;;;112730;209;38917;-35
2023/10/02 11:20:07;;;;;;;;;;;;;;;;;;112724;209;39494;-35
2023/10/02 11:23:03;;;;;;;;;;;;;;;;;;112719;209;42739;-35
2023/10/02 11:25:54;;;;;;;;;;;;;;;;;;112612;209;41358;-35
2023/10/02 11:28:35;;;;;;;;;;;;;;;;;;112624;209;38549;-35
2023/10/02 11:31:30;;;;;;;;;;;;;;;;;;112598;209;39611;-35
2023/10/02 11:34:08;;;;;;;;;;;;;;;;;;112532;209;42857;-34
2023/10/02 11:37:01;;;;;;;;;;;;;;;;;;112606;209;43242;-34
2023/10/02 11:39:35;;;;;;;;;;;;;;;;;;112440;209;191963;-34
2023/10/02 11:42:09;;;;;;;;;;;;;;;;;;112621;209;39968;-35
2023/10/02 11:44:41;;;;;;;;;;;;;;;;;;112558;209;43069;-36
2023/10/02 11:47:15;;;;;;;;;;;;;;;;;;112509;209;41608;-36
2023/10/02 11:49:54;;;;;;;;;;;;;;;;;;112493;210;38546;-36
2023/10/02 11:52:32;;;;;;;;;;;;;;;;;;112579;209;39758;-35
2023/10/02 11:55:10;;;;;;;;;;;;;;;;;;112602;209;42497;-35
2023/10/02 11:57:42;;;;;;;;;;;;;;;;;;112606;209;41733;-35
2023/10/02 12:00:20;;;;;;;;;;;;;;;;;;111941;209;895359;-35
2023/10/02 12:02:53;;;;;;;;;;;;;;;;;;112477;210;39323;-36
2023/10/02 12:05:32;;;;;;;;;;;;;;;;;;112520;210;42587;-36
2023/10/02 12:08:11;;;;;;;;;;;;;;;;;;112546;210;41755;-36
2023/10/02 12:10:44;;;;;;;;;;;;;;;;;;112512;210;38934;-36
2023/10/02 12:13:20;;;;;;;;;;;;;;;;;;112546;210;39742;-35
2023/10/02 12:15:56;;;;;;;;;;;;;;;;;;112521;209;42996;-35
2023/10/02 12:18:32;;;;;;;;;;;;;;;;;;112516;209;194878;-35
2023/10/02 12:21:14;;;;;;;;;;;;;;;;;;112580;209;38805;-37
2023/10/02 12:23:52;;;;;;;;;;;;;;;;;;112625;209;39565;-36
2023/10/02 12:26:25;;;;;;;;;;;;;;;;;;112573;209;42927;-33
2023/10/02 12:29:00;;;;;;;;;;;;;;;;;;112633;209;41446;-35
2023/10/02 12:31:36;;;;;;;;;;;;;;;;;;112674;209;38675;-36
2023/10/02 12:34:17;;;;;;;;;;;;;;;;;;112613;209;39588;-36
2023/10/02 12:36:54;;;;;;;;;;;;;;;;;;112560;209;42705;-35
2023/10/02 12:39:30;;;;;;;;;;;;;;;;;;112636;209;42050;-37
2023/10/02 12:42:07;;;;;;;;;;;;;;;;;;112697;209;38715;-36
2023/10/02 12:44:42;;;;;;;;;;;;;;;;;;112580;209;39489;-37
2023/10/02 12:47:18;;;;;;;;;;;;;;;;;;112570;209;43229;-37
2023/10/02 12:49:54;;;;;;;;;;;;;;;;;;112589;209;41412;-36
2023/10/02 12:52:30;;;;;;;;;;;;;;;;;;112587;209;39064;-37
2023/10/02 12:55:07;;;;;;;;;;;;;;;;;;112591;209;39742;-37
2023/10/02 12:57:39;;;;;;;;;;;;;;;;;;112546;209;48527;-38
2023/10/02 13:00:17;;;;;;;;;;;;;;;;;;112851;209;41597;-37
2023/10/02 13:02:51;;;;;;;;;;;;;;;;;;112575;209;38625;-37
2023/10/02 13:05:25;;;;;;;;;;;;;;;;;;112443;209;39709;-37
2023/10/02 13:07:59;;;;;;;;;;;;;;;;;;112335;210;201753;-37
2023/10/02 13:10:42;;;;;;;;;;;;;;;;;;112456;209;41846;-36
2023/10/02 13:19:22;;;;;;;;;;;;;;;;;;112262;211;50881;-36
2023/10/02 13:22:05;;;;;;;;;;;;;;;;;;112357;211;41878;-36
2023/10/02 13:24:42;;;;;;;;;;;;;;;;;;111704;211;894714;-36
2023/10/02 13:27:17;;;;;;;;;;;;;;;;;;112428;211;41822;-37
2023/10/02 13:29:56;;;;;;;;;;;;;;;;;;112338;211;42888;-37
2023/10/02 13:32:31;;;;;;;;;;;;;;;;;;112389;211;42186;-37
2023/10/02 13:35:11;;;;;;;;;;;;;;;;;;112393;211;38541;-37
2023/10/02 13:37:47;;;;;;;;;;;;;;;;;;112326;211;39696;-37
2023/10/02 13:40:31;;;;;;;;;;;;;;;;;;112340;211;43347;-37
2023/10/02 13:43:07;;;;;;;;;;;;;;;;;;112330;211;42899;-37
2023/10/02 13:45:41;;;;;;;;;;;;;;;;;;112404;211;38835;-37
2023/10/02 13:48:20;;;;;;;;;;;;;;;;;;112433;211;39732;-37
2023/10/02 13:50:54;;;;;;;;;;;;;;;;;;112342;211;49932;-37
2023/10/02 13:53:42;;;;;;;;;;;;;;;;;;112420;211;42733;-38
2023/10/02 13:56:20;;;;;;;;;;;;;;;;;;112471;211;38507;-36
2023/10/02 13:58:54;;;;;;;;;;;;;;;;;;112314;211;40761;-36
2023/10/02 14:01:32;;;;;;;;;;;;;;;;;;112420;211;42891;-36
2023/10/02 14:04:10;;;;;;;;;;;;;;;;;;112484;211;41818;-37
2023/10/02 14:06:46;;;;;;;;;;;;;;;;;;112418;211;39788;-37
2023/10/02 14:09:23;;;;;;;;;;;;;;;;;;112412;211;40955;-37
2023/10/02 14:12:00;;;;;;;;;;;;;;;;;;112396;211;44188;-37
2023/10/02 14:14:33;;;;;;;;;;;;;;;;;;112464;211;41641;-37
2023/10/02 14:17:11;;;;;;;;;;;;;;;;;;112362;211;38757;-37
2023/10/02 14:19:44;;;;;;;;;;;;;;;;;;112338;211;39379;-38
2023/10/02 14:22:35;;;;;;;;;;;;;;;;;;112402;211;42850;-37
2023/10/02 14:25:09;;;;;;;;;;;;;;;;;;112478;211;41608;-37
2023/10/02 14:27:43;;;;;;;;;;;;;;;;;;112418;211;38480;-37
2023/10/02 14:30:22;;;;;;;;;;;;;;;;;;112472;211;39785;-37
2023/10/02 14:33:00;;;;;;;;;;;;;;;;;;112421;211;42794;-37
2023/10/02 14:35:35;;;;;;;;;;;;;;;;;;112465;211;42950;-37
2023/10/02 14:38:24;;;;;;;;;;;;;;;;;;112424;211;39034;-37
2023/10/02 14:40:59;;;;;;;;;;;;;;;;;;112362;211;39977;-37
2023/10/02 14:43:32;;;;;;;;;;;;;;;;;;112500;211;42925;-37
2023/10/02 14:46:06;;;;;;;;;;;;;;;;;;112408;211;41847;-37
2023/10/02 14:48:40;;;;;;;;;;;;;;;;;;112453;211;38524;-37
2023/10/02 14:51:19;;;;;;;;;;;;;;;;;;112376;211;39581;-37
2023/10/02 14:53:54;;;;;;;;;;;;;;;;;;112273;212;42603;-37
2023/10/02 14:56:32;;;;;;;;;;;;;;;;;;112358;212;41364;-37
2023/10/02 14:59:09;;;;;;;;;;;;;;;;;;112320;212;38878;-37
2023/10/02 15:01:46;;;;;;;;;;;;;;;;;;112293;212;39441;-37
2023/10/02 15:04:27;;;;;;;;;;;;;;;;;;111638;213;915986;-37
2023/10/02 15:07:01;;;;;;;;;;;;;;;;;;112306;212;41499;-37
2023/10/02 15:09:35;;;;;;;;;;;;;;;;;;112322;213;38707;-37
2023/10/02 15:12:09;;;;;;;;;;;;;;;;;;112307;212;39810;-37
2023/10/02 15:14:46;;;;;;;;;;;;;;;;;;112319;213;43014;-37
2023/10/02 15:17:22;;;;;;;;;;;;;;;;;;112381;212;41537;-37
2023/10/02 15:19:55;;;;;;;;;;;;;;;;;;112388;211;40409;-37
2023/10/02 15:22:32;;;;;;;;;;;;;;;;;;112379;211;40880;-36
2023/10/02 15:25:07;;;;;;;;;;;;;;;;;;112442;211;42555;-36
2023/10/02 15:27:40;;;;;;;;;;;;;;;;;;112431;211;41408;-36
2023/10/02 15:30:20;;;;;;;;;;;;;;;;;;112406;211;38855;-36
2023/10/02 15:32:56;;;;;;;;;;;;;;;;;;112402;211;45265;-36
2023/10/02 15:35:31;;;;;;;;;;;;;;;;;;112464;211;42808;-36
2023/10/02 15:38:07;;;;;;;;;;;;;;;;;;112398;211;42047;-36
2023/10/02 15:40:44;;;;;;;;;;;;;;;;;;112438;211;39036;-36
2023/10/02 15:43:16;;;;;;;;;;;;;;;;;;112500;211;47499;-36
2023/10/02 15:45:54;;;;;;;;;;;;;;;;;;112417;211;43020;-36
2023/10/02 15:48:26;;;;;;;;;;;;;;;;;;112409;211;42939;-36
2023/10/02 15:51:03;;;;;;;;;;;;;;;;;;112410;211;39836;-36
2023/10/02 15:53:37;;;;;;;;;;;;;;;;;;112297;212;46510;-36
2023/10/02 15:56:17;;;;;;;;;;;;;;;;;;112251;212;42632;-37
2023/10/02 15:58:49;;;;;;;;;;;;;;;;;;112309;212;41702;-37
2023/10/02 16:01:25;;;;;;;;;;;;;;;;;;112261;212;39944;-37
2023/10/02 16:04:04;;;;;;;;;;;;;;;;;;112240;212;45466;-37
2023/10/02 16:06:40;;;;;;;;;;;;;;;;;;112283;212;44103;-36
2023/10/02 16:09:33;;;;;;;;;;;;;;;;;;112291;212;41684;-37
2023/10/02 16:12:06;;;;;;;;;;;;;;;;;;112210;212;38942;-37
2023/10/02 16:14:46;;;;;;;;;;;;;;;;;;112305;212;39551;-36
2023/10/02 16:17:19;;;;;;;;;;;;;;;;;;112262;212;42776;-37
2023/10/02 16:19:58;;;;;;;;;;;;;;;;;;112361;211;41624;-37
2023/10/02 16:22:32;;;;;;;;;;;;;;;;;;112389;211;38827;-37
2023/10/02 16:25:08;;;;;;;;;;;;;;;;;;112434;211;40845;-37
2023/10/02 16:27:41;;;;;;;;;;;;;;;;;;112430;211;44201;-37
2023/10/02 16:30:22;;;;;;;;;;;;;;;;;;112474;211;41882;-37
2023/10/02 16:32:57;;;;;;;;;;;;;;;;;;112396;211;38796;-37
2023/10/02 16:35:32;;;;;;;;;;;;;;;;;;112422;211;39638;-37
2023/10/02 16:38:11;;;;;;;;;;;;;;;;;;112416;211;44009;-37
2023/10/02 16:40:46;;;;;;;;;;;;;;;;;;112446;211;42861;-36
2023/10/02 16:43:21;;;;;;;;;;;;;;;;;;112384;211;39970;-38
2023/10/02 16:45:56;;;;;;;;;;;;;;;;;;112311;211;39342;-37
2023/10/02 16:48:41;;;;;;;;;;;;;;;;;;112216;212;43455;-36
2023/10/02 16:51:17;;;;;;;;;;;;;;;;;;112275;212;43051;-37
2023/10/02 16:53:49;;;;;;;;;;;;;;;;;;112258;212;38532;-40
2023/10/02 16:56:24;;;;;;;;;;;;;;;;;;112332;212;39784;-38
2023/10/02 16:58:59;;;;;;;;;;;;;;;;;;112299;212;43170;-39
2023/10/02 17:01:33;;;;;;;;;;;;;;;;;;112371;212;41850;-37
2023/10/02 17:04:07;;;;;;;;;;;;;;;;;;112359;212;38930;-37
2023/10/02 17:06:42;;;;;;;;;;;;;;;;;;111580;212;895467;-40
2023/10/02 17:09:14;;;;;;;;;;;;;;;;;;112292;212;43170;-39
2023/10/02 17:11:46;;;;;;;;;;;;;;;;;;112318;212;42900;-40
2023/10/02 17:14:21;;;;;;;;;;;;;;;;;;112273;212;38977;-37
2023/10/02 17:16:55;;;;;;;;;;;;;;;;;;112316;212;39779;-35
2023/10/02 17:19:29;;;;;;;;;;;;;;;;;;112349;211;42913;-36
2023/10/02 17:22:04;;;;;;;;;;;;;;;;;;112484;211;41910;-38
2023/10/02 17:24:38;;;;;;;;;;;;;;;;;;112466;211;38775;-37
2023/10/02 17:27:14;;;;;;;;;;;;;;;;;;112451;211;39587;-35
2023/10/02 17:29:54;;;;;;;;;;;;;;;;;;112426;211;175534;-36
2023/10/02 17:32:26;;;;;;;;;;;;;;;;;;112507;211;41551;-35
2023/10/02 17:35:03;;;;;;;;;;;;;;;;;;112353;211;175545;-34
2023/10/02 17:37:35;;;;;;;;;;;;;;;;;;112423;211;39655;-36
2023/10/02 17:40:13;;;;;;;;;;;;;;;;;;112414;211;42886;-37
2023/10/02 17:42:47;;;;;;;;;;;;;;;;;;112478;211;41869;-36
2023/10/02 17:45:23;;;;;;;;;;;;;;;;;;112477;211;38744;-36
2023/10/02 17:47:59;;;;;;;;;;;;;;;;;;112432;211;39465;-37
2023/10/02 17:50:32;;;;;;;;;;;;;;;;;;112513;211;42585;-36
2023/10/02 17:53:05;;;;;;;;;;;;;;;;;;112326;211;41767;-38
2023/10/02 17:55:39;;;;;;;;;;;;;;;;;;112269;212;38657;-37
2023/10/02 17:58:14;;;;;;;;;;;;;;;;;;112289;212;40985;-38
2023/10/02 18:00:52;;;;;;;;;;;;;;;;;;112315;212;42569;-36
2023/10/02 18:03:31;;;;;;;;;;;;;;;;;;112320;212;41639;-38
2023/10/02 18:06:15;;;;;;;;;;;;;;;;;;112178;212;38780;-36
2023/10/02 18:08:51;;;;;;;;;;;;;;;;;;112176;211;39844;-39
2023/10/02 18:11:30;;;;;;;;;;;;;;;;;;112494;211;43150;-37
2023/10/02 18:14:04;;;;;;;;;;;;;;;;;;112458;211;41824;-36
2023/10/02 18:16:42;;;;;;;;;;;;;;;;;;112157;212;175204;-35
2023/10/02 18:19:21;;;;;;;;;;;;;;;;;;112442;212;39779;-35
2023/10/02 18:21:56;;;;;;;;;;;;;;;;;;112288;211;175517;-35
2023/10/02 18:24:29;;;;;;;;;;;;;;;;;;112484;212;41820;-40
2023/10/02 18:27:07;;;;;;;;;;;;;;;;;;112441;212;46317;-38
2023/10/02 18:29:41;;;;;;;;;;;;;;;;;;112439;211;39548;-37
2023/10/02 18:32:14;;;;;;;;;;;;;;;;;;112216;212;43171;-36
2023/10/02 18:34:53;;;;;;;;;;;;;;;;;;112203;212;41733;-36
2023/10/02 18:37:31;;;;;;;;;;;;;;;;;;112120;212;46328;-36
2023/10/02 18:40:08;;;;;;;;;;;;;;;;;;112087;212;39872;-36
2023/10/02 18:42:46;;;;;;;;;;;;;;;;;;113781;212;175058;-36
2023/10/02 18:45:30;;;;;;;;;;;;;;;;;;112427;212;544016;-36